TimeEST,TemperatureF,Dew PointF,Humidity,Sea Level PressureIn,VisibilityMPH,Wind Direction,Wind SpeedMPH,Gust SpeedMPH,PrecipitationIn,Events,Conditions,WindDirDegrees,DateUTC
12:15 AM,32.0,28.4,87,30.19,10.0,Calm,Calm,-,N/A,,Clear,0,2012-11-20 05:15:00
12:35 AM,32.0,30.2,93,30.19,10.0,Calm,Calm,-,N/A,,Clear,0,2012-11-20 05:35:00
12:55 AM,32.0,30.2,93,30.19,10.0,Calm,Calm,-,N/A,,Clear,0,2012-11-20 05:55:00
1:15 AM,30.2,26.6,86,30.17,10.0,East,3.5,-,N/A,,Clear,90,2012-11-20 06:15:00
1:35 AM,30.2,28.4,93,30.18,9.0,WSW,3.5,-,N/A,,Clear,250,2012-11-20 06:35:00
1:55 AM,30.2,28.4,93,30.18,10.0,Calm,Calm,-,N/A,,Clear,0,2012-11-20 06:55:00
2:15 AM,32.0,28.4,87,30.19,10.0,Calm,Calm,-,N/A,,Clear,0,2012-11-20 07:15:00
2:35 AM,30.2,28.4,93,30.19,10.0,Calm,Calm,-,N/A,,Clear,0,2012-11-20 07:35:00
2:55 AM,30.2,28.4,93,30.19,10.0,Calm,Calm,-,N/A,,Clear,0,2012-11-20 07:55:00
3:15 AM,30.2,26.6,86,30.18,8.0,Calm,Calm,-,N/A,,Clear,0,2012-11-20 08:15:00
3:35 AM,30.2,28.4,93,30.17,9.0,Calm,Calm,-,N/A,,Clear,0,2012-11-20 08:35:00
3:55 AM,30.2,28.4,93,30.17,8.0,Calm,Calm,-,N/A,,Clear,0,2012-11-20 08:55:00
4:15 AM,30.2,28.4,93,30.17,10.0,Calm,Calm,-,N/A,,Clear,0,2012-11-20 09:15:00
4:35 AM,30.2,26.6,86,30.16,9.0,Calm,Calm,-,N/A,,Clear,0,2012-11-20 09:35:00
4:55 AM,30.2,28.4,93,30.16,8.0,Calm,Calm,-,N/A,,Clear,0,2012-11-20 09:55:00
5:15 AM,30.2,30.2,100,30.16,8.0,Calm,Calm,-,N/A,,Clear,0,2012-11-20 10:15:00
5:35 AM,30.2,28.4,93,30.16,7.0,Calm,Calm,-,N/A,,Clear,0,2012-11-20 10:35:00
5:55 AM,30.2,28.4,93,30.16,9.0,Calm,Calm,-,N/A,,Clear,0,2012-11-20 10:55:00
6:15 AM,30.2,28.4,93,30.16,8.0,Calm,Calm,-,N/A,,Clear,0,2012-11-20 11:15:00
6:35 AM,30.2,28.4,93,30.15,8.0,Calm,Calm,-,N/A,,Clear,0,2012-11-20 11:35:00
6:55 AM,30.2,28.4,93,30.16,10.0,Calm,Calm,-,N/A,,Clear,0,2012-11-20 11:55:00
7:15 AM,30.2,28.4,93,30.17,9.0,Calm,Calm,-,N/A,,Clear,0,2012-11-20 12:15:00
7:35 AM,30.2,28.4,93,30.17,8.0,Calm,Calm,-,N/A,,Clear,0,2012-11-20 12:35:00
7:55 AM,30.2,28.4,93,30.18,8.0,Calm,Calm,-,N/A,,Clear,0,2012-11-20 12:55:00
8:15 AM,32.0,30.2,93,30.19,8.0,Calm,Calm,-,N/A,,Clear,0,2012-11-20 13:15:00
8:35 AM,33.8,32.0,93,30.19,7.0,Calm,Calm,-,N/A,,Clear,0,2012-11-20 13:35:00
8:55 AM,35.6,33.8,93,30.18,7.0,Calm,Calm,-,N/A,,Clear,0,2012-11-20 13:55:00
9:15 AM,35.6,33.8,93,30.18,8.0,Calm,Calm,-,N/A,,Clear,0,2012-11-20 14:15:00
9:35 AM,37.4,33.8,87,30.18,8.0,Calm,Calm,-,N/A,,Clear,0,2012-11-20 14:35:00
9:55 AM,39.2,35.6,87,30.18,10.0,SSE,3.5,-,N/A,,Clear,160,2012-11-20 14:55:00
10:15 AM,42.8,35.6,76,30.18,10.0,Calm,Calm,-,N/A,,Clear,0,2012-11-20 15:15:00
10:35 AM,44.6,35.6,71,30.18,10.0,Calm,Calm,-,N/A,,Clear,0,2012-11-20 15:35:00
10:55 AM,46.4,35.6,66,30.17,10.0,South,3.5,-,N/A,,Clear,170,2012-11-20 15:55:00
11:15 AM,48.2,35.6,62,30.17,10.0,Calm,Calm,-,N/A,,Clear,0,2012-11-20 16:15:00
11:35 AM,48.2,35.6,62,30.16,10.0,Calm,Calm,-,N/A,,Clear,0,2012-11-20 16:35:00
11:55 AM,51.8,37.4,58,30.15,10.0,Calm,Calm,-,N/A,,Partly Cloudy,0,2012-11-20 16:55:00
12:15 PM,51.8,35.6,54,30.14,10.0,Calm,Calm,-,N/A,,Partly Cloudy,0,2012-11-20 17:15:00
12:35 PM,51.8,35.6,54,30.13,10.0,East,3.5,-,N/A,,Partly Cloudy,80,2012-11-20 17:35:00
12:55 PM,51.8,35.6,54,30.13,10.0,East,3.5,-,N/A,,Scattered Clouds,100,2012-11-20 17:55:00
1:15 PM,51.8,35.6,54,30.12,10.0,East,3.5,-,N/A,,Mostly Cloudy,80,2012-11-20 18:15:00
1:35 PM,53.6,35.6,51,30.12,10.0,NE,3.5,-,N/A,,Mostly Cloudy,50,2012-11-20 18:35:00
2:15 PM,53.6,35.6,51,30.11,10.0,Calm,Calm,-,N/A,,Mostly Cloudy,0,2012-11-20 19:15:00
2:35 PM,55.4,33.8,44,30.10,10.0,NNW,3.5,-,N/A,,Scattered Clouds,330,2012-11-20 19:35:00
2:55 PM,55.4,32.0,41,30.10,10.0,Calm,Calm,-,N/A,,Clear,0,2012-11-20 19:55:00
3:15 PM,55.4,28.4,36,30.10,10.0,Calm,Calm,-,N/A,,Clear,0,2012-11-20 20:15:00
3:35 PM,53.6,32.0,44,30.10,10.0,Calm,Calm,-,N/A,,Clear,0,2012-11-20 20:35:00
3:55 PM,53.6,30.2,41,30.10,10.0,East,3.5,-,N/A,,Clear,90,2012-11-20 20:55:00
4:15 PM,50.0,30.2,47,30.11,10.0,Calm,Calm,-,N/A,,Clear,0,2012-11-20 21:15:00
4:35 PM,46.4,32.0,57,30.11,10.0,Calm,Calm,-,N/A,,Clear,0,2012-11-20 21:35:00
4:55 PM,44.6,30.2,57,30.11,10.0,Calm,Calm,-,N/A,,Partly Cloudy,0,2012-11-20 21:55:00
5:15 PM,44.6,30.2,57,30.11,10.0,WSW,3.5,-,N/A,,Scattered Clouds,240,2012-11-20 22:15:00
5:35 PM,42.8,30.2,61,30.11,10.0,Calm,Calm,-,N/A,,Partly Cloudy,0,2012-11-20 22:35:00
5:55 PM,42.8,30.2,61,30.11,10.0,Calm,Calm,-,N/A,,Clear,0,2012-11-20 22:55:00
6:15 PM,39.2,28.4,65,30.12,10.0,Calm,Calm,-,N/A,,Clear,0,2012-11-20 23:15:00
6:35 PM,39.2,28.4,65,30.12,10.0,Calm,Calm,-,N/A,,Clear,0,2012-11-20 23:35:00
6:55 PM,41.0,30.2,65,30.12,10.0,Calm,Calm,-,N/A,,Clear,0,2012-11-20 23:55:00
7:15 PM,39.2,30.2,70,30.13,10.0,Calm,Calm,-,N/A,,Clear,0,2012-11-21 00:15:00
7:35 PM,37.4,30.2,75,30.13,10.0,Calm,Calm,-,N/A,,Mostly Cloudy,0,2012-11-21 00:35:00
7:55 PM,39.2,32.0,75,30.14,10.0,Calm,Calm,-,N/A,,Overcast,0,2012-11-21 00:55:00
8:15 PM,39.2,30.2,70,30.14,10.0,Calm,Calm,-,N/A,,Overcast,0,2012-11-21 01:15:00
8:35 PM,37.4,30.2,75,30.15,10.0,Calm,Calm,-,N/A,,Overcast,0,2012-11-21 01:35:00
8:55 PM,39.2,30.2,70,30.15,10.0,Calm,Calm,-,N/A,,Overcast,0,2012-11-21 01:55:00
9:15 PM,39.2,32.0,75,30.15,10.0,Calm,Calm,-,N/A,,Overcast,0,2012-11-21 02:15:00
9:35 PM,39.2,32.0,75,30.15,10.0,SSW,3.5,-,N/A,,Overcast,200,2012-11-21 02:35:00
9:55 PM,37.4,30.2,75,30.16,10.0,Calm,Calm,-,N/A,,Mostly Cloudy,0,2012-11-21 02:55:00
10:15 PM,37.4,30.2,75,30.15,10.0,Calm,Calm,-,N/A,,Clear,0,2012-11-21 03:15:00
10:35 PM,33.8,30.2,87,30.15,10.0,Calm,Calm,-,N/A,,Clear,0,2012-11-21 03:35:00
10:55 PM,33.8,28.4,81,30.15,10.0,Calm,Calm,-,N/A,,Clear,0,2012-11-21 03:55:00
11:15 PM,33.8,30.2,87,30.15,10.0,Calm,Calm,-,N/A,,Clear,0,2012-11-21 04:15:00
11:35 PM,30.2,24.8,80,30.15,10.0,Calm,Calm,-,N/A,,Clear,0,2012-11-21 04:35:00
11:55 PM,30.2,26.6,86,30.15,10.0,Calm,Calm,-,N/A,,Clear,0,2012-11-21 04:55:00